Batesland, South Dakota
Current Conditions -  °F | °C
As of 2:52 AM on Wednesday 26 Nov 2014 (Local Time) from KIEN Reporting Station
Few Clouds Few Clouds  
Wind Chill: 15°   Ceiling: Unl
Heat Index: 27°   Visibility: 10mi
Dew Point: 20°   Wind: 15mph
Humidity: 75%   Direction: 360°N
Pressure: 30.14"   Gusts: 23mph
Location:  43.13°N, 102.1°W
Report Text: KIEN 260952Z AUTO 36013G20KT 10SM FEW020 FEW120 M03/M07 A3014 RMK AO2 SLP235 T10281067
Loading
Personal Weather Stations






























Interactive Weather Map New forecast layout! Learn more

10-Day Weather Forecast

Advertisements
Track Severe Weather on mobile